KGGW/GGW METAR and TAF weather

Enter ICAO airport designator
Station Type Date Time Source
KGGW METAR 2020/01/18 12:53 UTC NOAA

KGGW 181253Z AUTO 32009KT 10SM CLR M24/M29 A3035 RMK AO2 SLP350 T12441294


Station Type Date Time Source
KGGW Decoded METAR 2020/01/18 12:53 UTC NOAA

GLASGOW INTERNATIONAL AIRPORT , MT, United States (KGGW) 48-13N 106-37W 693M
Jan 18, 2020 - 07:53 AM EST / 2020.01.18 1253 UTC
Wind: from the NW (320 degrees) at 10 MPH (9 KT):0
Visibility: 10 mile(s):0
Sky conditions: clear
Temperature: -11.9 F (-24.4 C)
Windchill: -31 F (-35 C):2
Dew Point: -20.9 F (-29.4 C)
Relative Humidity: 63%
Pressure (altimeter): 30.35 in. Hg (1027 hPa)
ob: KGGW 181253Z AUTO 32009KT 10SM CLR M24/M29 A3035 RMK AO2 SLP350 T12441294
cycle: 13

Station Type Date Time Source
KGGW TAF 2020/01/18 12:22 UTC NOAA

TAF KGGW 181120Z 1812/1912 30011KT P6SM SKC
FM181800 33011KT P6SM SCT250
FM190500 VRB05KT P6SM SCT150
FM190900 VRB05KT P6SM BKN120

Example: see airport list